createdAt,value
2024-02-24T15:21:52.641Z,94.54
2024-02-24T15:27:11.881Z,99.83
2024-02-24T15:32:31.456Z,95.28
2024-02-24T15:37:50.316Z,74.79
2024-02-24T15:43:09.773Z,55.15
2024-02-24T15:48:29.937Z,57.51
2024-02-24T15:53:48.146Z,66.85
2024-02-24T15:59:07.305Z,64.28
2024-02-24T16:04:26.338Z,54.39
2024-02-24T16:09:45.004Z,53.4
2024-02-24T16:15:03.875Z,41.21
2024-02-24T16:20:22.992Z,37.57
2024-02-24T16:25:42.229Z,35.3
2024-02-24T16:31:01.850Z,34.42
2024-02-24T16:36:20.770Z,30.98
2024-02-24T16:41:39.912Z,25.84
2024-02-24T16:46:58.954Z,24.26
2024-02-24T16:52:18.554Z,20.69
2024-02-24T16:57:37.877Z,20.23
2024-02-24T17:02:57.230Z,7
2024-02-24T17:08:17.631Z,0
2024-02-24T17:13:35.086Z,0
2024-02-24T17:18:54.613Z,0
2024-02-24T17:24:14.364Z,0
2024-02-24T17:29:33.371Z,0
2024-02-24T17:34:53.007Z,0
2024-02-24T17:40:12.800Z,0
2024-02-24T17:45:32.623Z,0
2024-02-24T17:50:52.242Z,0
2024-02-24T17:56:12.233Z,0
2024-02-24T18:01:30.638Z,0
2024-02-24T18:06:49.216Z,0
2024-02-24T18:12:08.505Z,0
2024-02-24T18:17:27.533Z,0
2024-02-24T18:22:46.445Z,0
2024-02-24T18:33:25.011Z,0
2024-02-24T18:38:44.504Z,0
2024-02-24T18:44:03.911Z,0
2024-02-24T18:49:23.393Z,0
2024-02-24T18:54:42.198Z,0
2024-02-24T19:00:02.278Z,0
2024-02-24T19:05:21.521Z,0
2024-02-24T19:10:40.838Z,0
2024-02-24T19:16:00.326Z,0
2024-02-24T19:21:19.284Z,0
2024-02-24T19:26:38.310Z,0
2024-02-24T19:31:58.124Z,0
2024-02-24T19:37:18.480Z,0
2024-02-24T19:42:36.540Z,0
2024-02-24T19:47:56.112Z,0
2024-02-24T19:58:34.981Z,0
2024-02-24T20:03:52.656Z,0
2024-02-24T20:14:31.449Z,0
2024-02-24T20:19:50.284Z,0
2024-02-24T20:25:09.649Z,0
2024-02-24T20:30:29.114Z,0
2024-02-24T20:35:47.727Z,0
2024-02-24T20:46:26.454Z,0
2024-02-24T20:57:04.951Z,0
2024-02-24T21:02:24.749Z,0
2024-02-24T21:07:43.186Z,0
2024-02-24T21:13:02.883Z,0
2024-02-24T21:18:22.307Z,0
2024-02-24T21:18:58.277Z,0
2024-02-24T21:24:15.358Z,0
2024-02-24T21:29:35.131Z,0
2024-02-24T21:34:54.144Z,0
2024-02-24T21:45:32.377Z,0
2024-02-24T21:50:51.109Z,0
2024-02-24T21:56:10.847Z,0
2024-02-24T22:01:30.178Z,0
2024-02-24T22:06:49.375Z,0
2024-02-24T22:12:08.847Z,0
2024-02-24T22:17:28.223Z,0
2024-02-24T22:22:47.902Z,0
2024-02-24T22:28:07.135Z,0
2024-02-24T22:33:26.540Z,0
2024-02-24T22:38:46.175Z,0
2024-02-24T22:44:04.361Z,0
2024-02-24T22:49:24.322Z,0
2024-02-24T22:54:43.366Z,0
2024-02-24T23:00:02.780Z,0
2024-02-24T23:05:21.767Z,0
2024-02-24T23:10:40.878Z,0
2024-02-24T23:16:00.356Z,0
2024-02-24T23:21:19.668Z,0
2024-02-24T23:26:38.453Z,0
2024-02-24T23:31:57.406Z,0
2024-02-24T23:37:17.192Z,0
2024-02-24T23:42:36.230Z,0
2024-02-24T23:47:55.594Z,0
2024-02-24T23:53:14.970Z,0
2024-02-24T23:58:34.719Z,0
